PAGYPAYA

Guest
Details From PAGY - SKAGWAY
To PAYA - YAKUTAT
Flight Number -
Tags decoded
Created
Modified
Stats Distance 151 nm / 279 km
Max Altitude 0 ft / 0 m
Waypoints 4
Social Downloads 0
Likes 0
Share VATSIM

Download

Looking for another format? Having issues loading an existing format? Contact us
Advertisement - Login to hide

Notes

Requested: PAGY HNS HOLIE PAYA

Route

PAGY HNS HOLIE PAYA

ID Type Via Altitude Latitude Longitude Leg Dist Tot Dist Heading (true) Name
O PAGY APT - 0 ft / 0 m 59.46006˚ -135.31566˚ - 0 nm - SKAGWAY
HNS NDB - 0 ft / 0 m 59.21208˚ -135.43086˚ 15 nm 15 nm 193° / 193° HAINES NDB
HOLIE FIX - 0 ft / 0 m 59.29691˚ -139.28581˚ 118 nm 133 nm 274° / 271° -
O PAYA APT - 0 ft / 0 m 59.50325˚ -139.66125˚ 16 nm 150 nm 317° / 317° YAKUTAT

Altitude Profile

Advertisement - Login to hide

PAGY

Details ICAO PAGY (SGY)
Name SKAGWAY
Region USA (Alaska)
Timezone America/Juneau (UTC-9.0)
Stats Elevation 44 ft / 13 m (AMSL)
Location 59.460062° -135.315661°
Runways 1
Magnetic Variation 19.352° E

METAR

PAGY 110653Z AUTO 00000KT 5SM -RA BR OVC031 04/03 A2990 RMK SLP124 P0010 T00440033 TSNO $ VIA AUTODIAL

Decode

TAF

TAF PAGY 110537Z 1106/1206 03005KT P6SM -RA OVC040 FM110900 20017KT 5SM RA BR BKN015 OVC030 FM111800 21009KT P6SM -RA SCT015 OVC035 AMD LTD TO CLD VIS AND WIND

Decode

Departure Runways

ID Width Length Bearing (true) Bearing (mag) Surface Threshold Offset Overrun Length
02 75 ft / 23 m 3,542 ft / 1,080 m 43.94° 24.59° Asphalt 0 ft / 0 m 299 ft / 91 m
20 75 ft / 23 m 3,542 ft / 1,080 m 223.95° 204.60° Asphalt 0 ft / 0 m 299 ft / 91 m

PAYA

Details ICAO PAYA (YAK)
Name YAKUTAT
Region USA (Alaska)
Timezone America/Yakutat (UTC-9.0)
Stats Elevation 33 ft / 10 m (AMSL)
Location 59.503248° -139.661250°
Runways 2
Magnetic Variation 18.710° E

METAR

PAYA 110722Z AUTO 10013G22KT 10SM OVC029 09/07 A2960

Decode

TAF

TAF PAYA 110537Z 1106/1206 09016G26KT 5SM RA BR BKN015 OVC030 WS020/13060KT FM111500 15010KT 6SM -RA SCT015 OVC035 FM120000 10005KT P6SM VCSH SCT040 BKN080 AMD LTD TO CLD VIS AND WIND

Decode

Destination Runways

ID Width Length Bearing (true) Bearing (mag) Surface Threshold Offset Overrun Length
02 150 ft / 46 m 6,460 ft / 1,969 m 44.92° 26.21° Concrete 1,388 ft / 423 m 0 ft / 0 m
11 150 ft / 46 m 7,727 ft / 2,355 m 135.05° 116.34° Asphalt 0 ft / 0 m 0 ft / 0 m
20 150 ft / 46 m 6,460 ft / 1,969 m 224.95° 206.24° Concrete 0 ft / 0 m 0 ft / 0 m
29 150 ft / 46 m 7,727 ft / 2,355 m 315.08° 296.37° Asphalt 0 ft / 0 m 0 ft / 0 m

Approach Navaids

Runway Type Ident Frequency Range Bearing (true) Bearing (mag) Slope Elevation
11 Localiser IYAK 111.10 MHz 18 nm / 33 km 135.08° 116.37° - 24 ft / 7 m (AMSL)
11 Glidescope IYAK 111.10 MHz 10 nm / 19 km 135.06° 116.35° 3.00° 31 ft / 9 m (AMSL)

Popular Alternatives